Time;durP1;ratioP1;P1;durP2;ratioP2;P2;SDS_P1;SDS_P2;PMS_P1;PMS_P2;Temp;Humidity;BMP_temperature;BMP_pressure;BME280_temperature;BME280_humidity;BME280_pressure;Samples;Min_cycle;Max_cycle;Signal;HPM_P1;HPM_P2
2023/11/19 00:01:57;;;;;;;;;;;;;;;4.57;100.00;99435.17;135625;1279;24750;-71
2023/11/19 00:04:59;;;;;;;46.80;19.50;;;;;;;4.56;100.00;99436.40;135608;1278;25478;-72
2023/11/19 00:08:02;;;;;;;44.90;19.00;;;;;;;4.52;100.00;99436.67;135648;1278;22668;-72
2023/11/19 00:11:05;;;;;;;44.30;19.10;;;;;;;4.59;100.00;99439.77;135599;1278;22536;-72
2023/11/19 00:14:08;;;;;;;;;;;;;;;4.64;100.00;99438.44;135620;1278;22537;-72
2023/11/19 00:17:11;;;;;;;;;;;;;;;4.64;100.00;99434.45;135655;1278;22515;-72
2023/11/19 00:20:13;;;;;;;45.00;18.40;;;;;;;4.81;100.00;99424.96;135637;1278;22556;-69
2023/11/19 00:23:16;;;;;;;;;;;;;;;4.83;100.00;99424.23;135638;1279;25507;-72
2023/11/19 00:26:18;;;;;;;48.40;19.80;;;;;;;4.82;100.00;99427.71;135588;1257;24388;-71
2023/11/19 00:29:21;;;;;;;45.20;19.50;;;;;;;4.74;100.00;99419.80;135663;1278;22540;-68
2023/11/19 00:32:23;;;;;;;;;;;;;;;4.88;100.00;99418.02;135648;1278;25448;-70
2023/11/19 00:35:26;;;;;;;42.60;19.30;;;;;;;4.81;100.00;99416.14;135622;1261;22537;-71
2023/11/19 00:38:28;;;;;;;;;;;;;;;4.83;100.00;99417.64;135632;1279;22522;-71
2023/11/19 00:41:31;;;;;;;44.90;19.60;;;;;;;4.84;100.00;99403.56;135667;1260;22529;-73
2023/11/19 00:44:33;;;;;;;47.30;20.60;;;;;;;4.83;100.00;99399.27;135600;1278;22549;-71
2023/11/19 00:47:36;;;;;;;;;;;;;;;4.97;100.00;99395.59;135623;1279;22593;-70
2023/11/19 00:50:44;;;;;;;48.70;20.20;;;;;;;5.07;100.00;99393.39;135635;1279;22574;-69
2023/11/19 00:53:46;;;;;;;44.80;20.10;;;;;;;5.12;100.00;99388.73;135587;1279;22540;-71
2023/11/19 00:56:52;;;;;;;48.00;21.10;;;;;;;5.02;100.00;99385.56;135599;1279;22529;-69
2023/11/19 00:59:54;;;;;;;49.10;21.20;;;;;;;4.98;100.00;99374.77;135680;1260;22594;-70
2023/11/19 01:02:57;;;;;;;47.50;21.50;;;;;;;4.88;100.00;99363.45;135630;1279;25412;-69
2023/11/19 01:06:02;;;;;;;42.60;20.10;;;;;;;4.79;100.00;99355.21;135643;1279;26634;-71
2023/11/19 01:09:05;;;;;;;44.10;18.70;;;;;;;4.82;100.00;99352.88;135642;1279;24385;-72
2023/11/19 01:12:08;;;;;;;40.70;18.30;;;;;;;4.72;100.00;99348.45;135662;1279;22642;-71
2023/11/19 01:15:11;;;;;;;47.60;20.30;;;;;;;4.75;100.00;99349.95;135632;1279;22658;-73
2023/11/19 01:18:13;;;;;;;46.50;20.30;;;;;;;4.90;100.00;99356.63;135662;1279;22653;-69
2023/11/19 01:21:16;;;;;;;54.80;23.60;;;;;;;4.90;100.00;99347.79;135619;1279;22571;-69
2023/11/19 01:24:18;;;;;;;;;;;;;;;4.91;100.00;99333.04;135617;1279;22511;-69
2023/11/19 01:27:21;;;;;;;48.00;20.60;;;;;;;5.09;100.00;99330.40;135621;1279;24271;-70
2023/11/19 01:30:23;;;;;;;;;;;;;;;5.00;100.00;99330.51;135630;1279;22586;-69
2023/11/19 01:33:26;;;;;;;49.10;21.00;;;;;;;4.89;100.00;99330.65;135615;1279;22654;-71
2023/11/19 01:36:29;;;;;;;51.40;21.00;;;;;;;4.94;100.00;99330.52;135613;1279;22647;-69
2023/11/19 01:39:31;;;;;;;44.10;18.70;;;;;;;5.09;100.00;99326.62;135617;1279;22525;-71
2023/11/19 01:42:34;;;;;;;42.20;19.50;;;;;;;5.15;100.00;99319.30;135597;1260;22564;-71
2023/11/19 01:45:36;;;;;;;45.10;20.30;;;;;;;5.13;100.00;99325.77;131560;1279;5398869;-71
2023/11/19 01:48:40;;;;;;;42.60;17.80;;;;;;;5.23;100.00;99322.86;135604;1275;22578;-73
2023/11/19 01:51:43;;;;;;;44.00;18.90;;;;;;;5.26;100.00;99318.61;135621;1279;22607;-72
2023/11/19 01:54:46;;;;;;;;;;;;;;;5.08;100.00;99312.75;135624;1277;24380;-71
2023/11/19 01:57:49;;;;;;;45.10;19.30;;;;;;;5.21;100.00;99311.85;135607;1279;22537;-71
2023/11/19 02:00:52;;;;;;;46.20;18.80;;;;;;;5.16;100.00;99315.44;135570;1279;22530;-71
2023/11/19 02:03:54;;;;;;;;;;;;;;;5.15;100.00;99312.02;135595;1279;25475;-70
2023/11/19 02:06:57;;;;;;;41.80;19.70;;;;;;;5.03;100.00;99313.59;135519;1279;23122;-70
2023/11/19 02:10:01;;;;;;;;;;;;;;;5.03;100.00;99310.48;135543;1279;22558;-71
2023/11/19 02:13:06;;;;;;;40.00;16.80;;;;;;;5.08;100.00;99306.02;135592;1279;22555;-70
2023/11/19 02:16:09;;;;;;;41.70;18.30;;;;;;;5.09;100.00;99297.30;135528;1279;23888;-71
2023/11/19 02:19:12;;;;;;;41.00;17.70;;;;;;;5.23;100.00;99295.30;135641;1279;25255;-66
2023/11/19 02:22:14;;;;;;;;;;;;;;;5.17;100.00;99291.70;135623;1279;22580;-71
2023/11/19 02:25:17;;;;;;;39.40;16.70;;;;;;;5.16;100.00;99282.01;135598;1279;22532;-69
2023/11/19 02:28:19;;;;;;;;;;;;;;;5.20;100.00;99273.21;135662;1279;22538;-70
2023/11/19 02:31:22;;;;;;;41.50;18.60;;;;;;;5.08;100.00;99272.00;135628;1279;24388;-70
2023/11/19 02:34:25;;;;;;;40.00;18.20;;;;;;;5.02;100.00;99277.06;135622;1279;22564;-70
2023/11/19 02:37:28;;;;;;;40.00;17.90;;;;;;;4.94;100.00;99270.71;135683;1278;22623;-70
2023/11/19 02:40:30;;;;;;;39.10;18.10;;;;;;;4.95;100.00;99259.08;135620;1257;22652;-72
2023/11/19 02:43:33;;;;;;;55.90;25.20;;;;;;;5.00;100.00;99249.56;135644;1278;22555;-69
2023/11/19 02:46:36;;;;;;;65.40;29.10;;;;;;;5.08;100.00;99247.40;135634;1278;22556;-71
2023/11/19 02:49:38;;;;;;;45.70;21.60;;;;;;;5.15;100.00;99245.79;135668;1278;22634;-69
2023/11/19 02:52:41;;;;;;;50.00;23.50;;;;;;;5.14;100.00;99236.64;135642;1278;22699;-73
2023/11/19 02:55:48;;;;;;;;;;;;;;;5.08;100.00;99229.21;135645;1278;22542;-70
2023/11/19 02:58:51;;;;;;;44.30;19.00;;;;;;;5.03;100.00;99212.72;135621;1278;22559;-71
2023/11/19 03:01:53;;;;;;;54.10;20.20;;;;;;;5.18;100.00;99203.73;135613;1278;22558;-69
2023/11/19 03:04:59;;;;;;;;;;;;;;;5.24;100.00;99195.91;135579;1278;24037;-71
2023/11/19 03:08:02;;;;;;;41.90;17.70;;;;;;;5.14;100.00;99184.80;135618;1260;22533;-72
2023/11/19 03:11:06;;;;;;;43.30;20.00;;;;;;;5.21;100.00;99177.13;135621;1279;22610;-72
2023/11/19 03:14:09;;;;;;;44.30;19.00;;;;;;;5.14;100.00;99164.71;135582;1279;25479;-72
2023/11/19 03:17:11;;;;;;;42.50;18.30;;;;;;;5.13;100.00;99156.08;135624;1279;25356;-71
2023/11/19 03:20:16;;;;;;;;;;;;;;;5.02;100.00;99155.39;135626;1279;22504;-70
2023/11/19 03:23:19;;;;;;;43.60;18.20;;;;;;;5.01;100.00;99147.79;135610;1279;22559;-70
2023/11/19 03:26:21;;;;;;;40.50;18.40;;;;;;;4.98;100.00;99136.80;135626;1279;22538;-71
2023/11/19 03:29:26;;;;;;;44.00;18.40;;;;;;;5.11;100.00;99133.24;135628;1279;22533;-70
2023/11/19 03:32:28;;;;;;;43.60;18.60;;;;;;;5.16;100.00;99129.63;135630;1279;22552;-70
2023/11/19 03:35:32;;;;;;;;;;;;;;;5.28;100.00;99133.17;135647;1279;24351;-71
2023/11/19 03:38:35;;;;;;;40.10;18.00;;;;;;;5.39;100.00;99130.55;135599;1279;22523;-71
2023/11/19 03:41:39;;;;;;;40.50;17.50;;;;;;;5.35;100.00;99133.98;135644;1279;22529;-69
2023/11/19 03:44:41;;;;;;;38.60;18.10;;;;;;;5.32;100.00;99139.30;135612;1279;22559;-73
2023/11/19 03:47:44;;;;;;;45.10;18.30;;;;;;;5.20;100.00;99132.58;135597;1279;22552;-70
2023/11/19 03:50:46;;;;;;;42.20;17.50;;;;;;;5.10;100.00;99130.33;135629;1279;22576;-70
2023/11/19 03:53:49;;;;;;;;;;;;;;;5.14;100.00;99117.17;135607;1279;22543;-72
2023/11/19 03:56:51;;;;;;;46.60;20.90;;;;;;;5.14;100.00;99097.09;135586;1259;22643;-72
2023/11/19 03:59:55;;;;;;;;;;;;;;;5.25;100.00;99083.70;135619;1279;22571;-72
2023/11/19 04:02:58;;;;;;;41.10;17.00;;;;;;;5.33;100.00;99075.98;135636;1279;22668;-71
2023/11/19 04:06:00;;;;;;;40.80;17.40;;;;;;;5.36;100.00;99075.50;135661;1279;22576;-71
2023/11/19 04:09:03;;;;;;;43.00;18.70;;;;;;;5.15;100.00;99080.44;135595;1260;22587;-70
2023/11/19 04:12:06;;;;;;;45.10;18.70;;;;;;;5.10;100.00;99084.05;135627;1279;23007;-71
2023/11/19 04:15:09;;;;;;;43.60;18.10;;;;;;;5.27;100.00;99087.96;135619;1279;22542;-70
2023/11/19 04:18:11;;;;;;;43.90;18.40;;;;;;;5.35;100.00;99080.23;135566;1279;22546;-71
2023/11/19 04:21:14;;;;;;;;;;;;;;;5.35;100.00;99074.86;135634;1279;22516;-71
2023/11/19 04:24:16;;;;;;;40.50;17.00;;;;;;;5.39;100.00;99064.11;135595;1279;22552;-71
2023/11/19 04:27:19;;;;;;;;;;;;;;;5.40;100.00;99053.67;135576;1279;22529;-71
2023/11/19 04:30:22;;;;;;;43.40;17.90;;;;;;;5.43;100.00;99044.39;135596;1279;22530;-69
2023/11/19 04:33:25;;;;;;;41.20;18.30;;;;;;;5.40;100.00;99042.42;135531;1278;22786;-70
2023/11/19 04:36:28;;;;;;;43.30;18.30;;;;;;;5.44;100.00;99039.34;135613;1278;25448;-69
2023/11/19 04:39:31;;;;;;;46.70;19.70;;;;;;;5.29;100.00;99037.44;135633;1278;22560;-73
2023/11/19 04:42:33;;;;;;;;;;;;;;;5.20;100.00;99029.26;135613;1278;22522;-70
2023/11/19 04:45:36;;;;;;;55.00;22.80;;;;;;;5.06;100.00;99020.55;135612;1278;22632;-70
2023/11/19 04:48:39;;;;;;;43.00;18.90;;;;;;;5.11;100.00;99013.44;135632;1278;22537;-73
2023/11/19 04:51:42;;;;;;;44.90;18.90;;;;;;;5.19;100.00;99008.65;135653;1279;22546;-70
2023/11/19 04:54:45;;;;;;;42.60;18.10;;;;;;;5.25;100.00;99007.73;135628;1279;22691;-70
2023/11/19 04:57:47;;;;;;;48.60;19.50;;;;;;;5.25;100.00;99011.73;135603;1278;22656;-69
2023/11/19 05:00:50;;;;;;;;;;;;;;;5.23;100.00;99017.89;135646;1278;22555;-72
2023/11/19 05:03:52;;;;;;;43.20;18.40;;;;;;;5.23;100.00;99018.06;135649;1260;22543;-70
2023/11/19 05:06:55;;;;;;;;;;;;;;;5.19;100.00;99010.04;135600;1278;23089;-71
2023/11/19 05:09:58;;;;;;;46.00;18.60;;;;;;;5.19;100.00;99004.65;135600;1259;22792;-70
2023/11/19 05:13:02;;;;;;;47.20;19.30;;;;;;;5.14;100.00;98998.27;135610;1278;22537;-72
2023/11/19 05:16:04;;;;;;;46.60;20.00;;;;;;;5.10;100.00;98998.05;135609;1278;22543;-69
2023/11/19 05:19:07;;;;;;;;;;;;;;;4.97;100.00;98992.98;135611;1276;24224;-71
2023/11/19 05:22:09;;;;;;;40.10;17.60;;;;;;;4.95;100.00;98990.63;135616;1279;22645;-70
2023/11/19 05:25:12;;;;;;;;;;;;;;;4.99;100.00;98990.64;135588;1279;22527;-73
2023/11/19 05:28:15;;;;;;;41.90;17.90;;;;;;;5.06;100.00;98976.54;135587;1279;22528;-72
2023/11/19 05:31:18;;;;;;;43.70;18.50;;;;;;;5.15;100.00;98980.52;135640;1279;22529;-72
2023/11/19 05:34:20;;;;;;;44.20;18.10;;;;;;;5.15;100.00;98981.76;135585;1279;22544;-71
2023/11/19 05:37:23;;;;;;;;;;;;;;;4.98;100.00;98977.34;135644;1279;24235;-68
2023/11/19 05:40:25;;;;;;;44.70;19.80;;;;;;;4.87;100.00;98974.79;135584;1279;22547;-68
2023/11/19 05:43:28;;;;;;;43.10;18.50;;;;;;;4.78;100.00;98964.70;135623;1279;22531;-69
2023/11/19 05:46:30;;;;;;;;;;;;;;;4.84;100.00;98962.92;135654;1279;22552;-70
2023/11/19 05:49:33;;;;;;;41.30;18.40;;;;;;;4.79;100.00;98963.10;135632;1279;25157;-70
2023/11/19 05:52:35;;;;;;;42.00;17.00;;;;;;;4.85;100.00;98962.90;135609;1279;22522;-69
2023/11/19 05:55:44;;;;;;;;;;;;;;;4.94;100.00;98962.23;135638;1279;22524;-70
2023/11/19 05:58:48;;;;;;;43.70;17.50;;;;;;;4.82;100.00;98953.80;135583;1279;22646;-71
2023/11/19 06:01:50;;;;;;;35.80;16.30;;;;;;;4.89;100.00;98959.30;135620;1278;22536;-69
2023/11/19 06:04:53;;;;;;;;;;;;;;;4.90;100.00;98957.52;135593;1279;24283;-73
2023/11/19 06:07:57;;;;;;;38.80;16.20;;;;;;;4.94;100.00;98954.44;135624;1279;24390;-70
2023/11/19 06:11:01;;;;;;;43.90;16.90;;;;;;;4.94;100.00;98950.61;135552;1279;22545;-70
2023/11/19 06:14:05;;;;;;;43.50;17.50;;;;;;;4.80;100.00;98939.67;135619;1279;22537;-70
2023/11/19 06:17:10;;;;;;;40.10;16.70;;;;;;;4.83;100.00;98934.38;135591;1279;22559;-70
2023/11/19 06:20:14;;;;;;;39.60;16.70;;;;;;;4.84;100.00;98937.80;135593;1279;22544;-71
2023/11/19 06:23:16;;;;;;;42.10;17.50;;;;;;;4.93;100.00;98941.66;135591;1279;24234;-69
2023/11/19 06:26:19;;;;;;;;;;;;;;;4.93;100.00;98946.33;135643;1279;22584;-67
2023/11/19 06:29:21;;;;;;;42.30;17.00;;;;;;;4.95;100.00;98936.71;135593;1279;22549;-68
2023/11/19 06:32:24;;;;;;;40.80;17.50;;;;;;;4.93;100.00;98939.90;135581;1279;22588;-69
2023/11/19 06:35:27;;;;;;;43.10;17.80;;;;;;;5.02;100.00;98942.02;135599;1279;22952;-70
2023/11/19 06:38:30;;;;;;;43.00;17.10;;;;;;;4.93;100.00;98950.83;135569;1260;22525;-69
2023/11/19 06:41:32;;;;;;;;;;;;;;;4.98;100.00;98958.10;135564;1278;22622;-69
2023/11/19 06:44:35;;;;;;;43.70;18.00;;;;;;;4.90;100.00;98947.11;135542;1278;25272;-70
2023/11/19 06:47:37;;;;;;;43.00;18.40;;;;;;;4.96;100.00;98925.59;135580;1278;22572;-69
2023/11/19 06:50:40;;;;;;;40.10;17.30;;;;;;;4.99;100.00;98914.90;135551;1278;22540;-71
2023/11/19 06:53:44;;;;;;;;;;;;;;;5.11;100.00;98916.89;135544;1278;22506;-70
2023/11/19 06:56:46;;;;;;;40.10;17.40;;;;;;;5.25;100.00;98928.02;135572;1278;22536;-70
2023/11/19 06:59:49;;;;;;;52.00;20.30;;;;;;;5.45;100.00;98926.38;135586;1278;22579;-69
2023/11/19 07:02:51;;;;;;;48.20;20.20;;;;;;;5.57;100.00;98915.35;135628;1278;22579;-71
2023/11/19 07:05:55;;;;;;;;;;;;;;;5.47;100.00;98905.14;135586;1278;25217;-70
2023/11/19 07:08:58;;;;;;;41.80;18.10;;;;;;;5.51;100.00;98901.34;135601;1278;24209;-70
2023/11/19 07:12:01;;;;;;;43.30;18.30;;;;;;;5.55;100.00;98886.61;135595;1278;25492;-70
2023/11/19 07:15:04;;;;;;;38.00;16.80;;;;;;;5.47;100.00;98892.98;135582;1278;22563;-72
2023/11/19 07:18:06;;;;;;;36.20;15.80;;;;;;;5.43;100.00;98889.34;135568;1278;22551;-72
2023/11/19 07:21:11;;;;;;;41.10;17.10;;;;;;;5.52;100.00;98878.59;135585;1278;24369;-73
2023/11/19 07:24:14;;;;;;;35.70;16.20;;;;;;;5.45;100.00;98868.79;135581;1278;25259;-70
2023/11/19 07:27:16;;;;;;;40.00;18.20;;;;;;;5.46;100.00;98866.68;135580;1278;22773;-72
2023/11/19 07:30:19;;;;;;;;;;;;;;;5.49;100.00;98861.17;135629;1278;22508;-70
2023/11/19 07:33:21;;;;;;;40.70;17.40;;;;;;;5.44;100.00;98849.59;135596;1278;22530;-70
2023/11/19 07:36:24;;;;;;;48.70;20.80;;;;;;;5.42;100.00;98841.00;135627;1278;22581;-68
2023/11/19 07:39:26;;;;;;;;;;;;;;;5.48;100.00;98849.58;135543;1279;22532;-71
2023/11/19 07:42:29;;;;;;;46.20;19.40;;;;;;;5.50;100.00;98851.78;135615;1279;22536;-73
2023/11/19 07:45:32;;;;;;;44.20;18.80;;;;;;;5.51;100.00;98849.30;135587;1279;22659;-71
2023/11/19 07:48:34;;;;;;;;;;;;;;;5.69;100.00;98843.73;135614;1279;22518;-70
2023/11/19 07:51:37;;;;;;;43.80;18.40;;;;;;;5.94;100.00;98838.54;135592;1279;25263;-72
2023/11/19 07:54:39;;;;;;;49.60;19.80;;;;;;;6.07;100.00;98829.02;135624;1279;25391;-70
2023/11/19 07:57:42;;;;;;;43.10;18.90;;;;;;;6.20;100.00;98831.23;135604;1279;22543;-72
2023/11/19 08:00:45;;;;;;;;;;;;;;;6.24;100.00;98827.42;135622;1279;22511;-71
2023/11/19 08:03:50;;;;;;;47.60;20.50;;;;;;;6.32;100.00;98820.31;135574;1279;22544;-71
2023/11/19 08:06:52;;;;;;;;;;;;;;;6.32;100.00;98816.82;135653;1279;23886;-71
2023/11/19 08:09:55;;;;;;;44.90;19.80;;;;;;;6.41;100.00;98806.38;135571;1279;22645;-71
2023/11/19 08:12:58;;;;;;;;;;;;;;;6.36;100.00;98802.94;135613;1279;22532;-72
2023/11/19 08:16:00;;;;;;;44.00;17.80;;;;;;;6.40;100.00;98797.36;135563;1279;22553;-68
2023/11/19 08:19:03;;;;;;;38.70;17.50;;;;;;;6.40;100.00;98797.54;135595;1279;22569;-72
2023/11/19 08:22:05;;;;;;;39.60;17.60;;;;;;;6.44;100.00;98797.70;135632;1279;22534;-70
2023/11/19 08:25:08;;;;;;;40.10;18.10;;;;;;;6.64;100.00;98802.72;135618;1279;22645;-72
2023/11/19 08:28:10;;;;;;;;;;;;;;;6.89;100.00;98798.30;135599;1279;22521;-71
2023/11/19 08:31:13;;;;;;;37.90;16.60;;;;;;;7.04;100.00;98785.93;135548;1275;22544;-71
2023/11/19 08:34:15;;;;;;;;;;;;;;;7.20;100.00;98788.70;135582;1261;22619;-68
2023/11/19 08:37:20;;;;;;;36.70;16.00;;;;;;;7.20;100.00;98791.11;135614;1279;22543;-71
2023/11/19 08:40:23;;;;;;;36.00;16.20;;;;;;;7.19;100.00;98789.92;135621;1279;22529;-68
2023/11/19 08:43:26;;;;;;;40.60;17.30;;;;;;;7.24;100.00;98793.17;135561;1279;22568;-70
2023/11/19 08:46:28;;;;;;;35.50;14.40;;;;;;;7.19;100.00;98786.62;135611;1279;22533;-70
2023/11/19 08:49:31;;;;;;;39.50;15.90;;;;;;;7.00;100.00;98778.13;135587;1279;22638;-70
2023/11/19 08:52:33;;;;;;;35.60;15.30;;;;;;;6.84;100.00;98778.68;135579;1279;22536;-71
2023/11/19 08:55:36;;;;;;;36.80;15.10;;;;;;;6.83;100.00;98782.90;135550;1260;22558;-70
2023/11/19 08:58:39;;;;;;;35.30;14.30;;;;;;;6.74;100.00;98783.00;135597;1270;22541;-65
2023/11/19 09:01:42;;;;;;;35.10;15.10;;;;;;;6.75;100.00;98780.17;135583;1278;22581;-70
2023/11/19 09:04:44;;;;;;;;;;;;;;;6.71;100.00;98770.61;135586;1278;22507;-70
2023/11/19 09:07:48;;;;;;;37.70;16.80;;;;;;;6.68;100.00;98762.08;135588;1278;24068;-71
2023/11/19 09:10:51;;;;;;;35.00;15.60;;;;;;;6.67;100.00;98750.45;135539;1278;26584;-71
2023/11/19 09:13:53;;;;;;;35.40;14.60;;;;;;;6.75;100.00;98736.34;135489;1278;22539;-70
2023/11/19 09:16:56;;;;;;;36.80;15.50;;;;;;;6.84;100.00;98728.80;135553;1278;22682;-71
2023/11/19 09:19:59;;;;;;;35.10;15.80;;;;;;;6.97;100.00;98718.83;135545;1278;22541;-70
2023/11/19 09:23:01;;;;;;;35.00;15.30;;;;;;;7.17;100.00;98710.58;135526;1278;22545;-70
2023/11/19 09:26:07;;;;;;;;;;;;;;;7.20;100.00;98707.27;135535;1255;22534;-68
2023/11/19 09:29:09;;;;;;;40.00;16.60;;;;;;;7.26;100.00;98702.30;135548;1278;22551;-69
2023/11/19 09:32:12;;;;;;;;;;;;;;;7.29;100.00;98689.80;135602;1278;22520;-66
2023/11/19 09:35:15;;;;;;;36.50;15.10;;;;;;;7.47;100.00;98686.45;135500;1278;22526;-69
2023/11/19 09:38:30;;;;;;;36.60;15.60;;;;;;;7.56;100.00;98676.26;135562;1278;24311;-71
2023/11/19 09:41:53;;;;;;;34.70;15.80;;;;;;;7.59;100.00;98661.86;135592;1278;22532;-70
2023/11/19 09:44:56;;;;;;;37.80;15.30;;;;;;;7.62;100.00;98656.11;135560;1278;22567;-70
2023/11/19 09:47:58;;;;;;;35.10;14.40;;;;;;;7.70;100.00;98654.86;135587;1279;22547;-71
2023/11/19 09:51:01;;;;;;;;;;;;;;;7.55;100.00;98655.78;135598;1279;25469;-65
2023/11/19 09:54:04;;;;;;;35.10;14.40;;;;;;;7.58;100.00;98650.05;135557;1279;22589;-68
2023/11/19 09:57:07;;;;;;;;;;;;;;;7.67;100.00;98648.73;135657;1279;22525;-70
2023/11/19 10:00:11;;;;;;;33.00;14.20;;;;;;;7.73;100.00;98640.06;135595;1279;22776;-70
2023/11/19 10:03:13;;;;;;;31.60;13.10;;;;;;;7.80;100.00;98635.16;135608;1279;22648;-71
2023/11/19 10:06:16;;;;;;;34.10;14.20;;;;;;;7.92;100.00;98631.94;135559;1279;22546;-69
2023/11/19 10:09:19;;;;;;;;;;;;;;;7.85;100.00;98625.17;135605;1279;22531;-72
2023/11/19 10:12:21;;;;;;;33.20;14.70;;;;;;;7.94;100.00;98618.41;135568;1279;22580;-72
2023/11/19 10:15:24;;;;;;;;;;;;;;;8.05;100.00;98608.77;135636;1279;22510;-70
2023/11/19 10:18:27;;;;;;;34.60;15.00;;;;;;;8.31;100.00;98598.50;135583;1279;22543;-70
2023/11/19 10:21:31;;;;;;;34.00;14.40;;;;;;;8.26;100.00;98594.77;135591;1279;22652;-70
2023/11/19 10:24:34;;;;;;;32.00;13.50;;;;;;;8.32;100.00;98586.95;135575;1279;22552;-70
2023/11/19 10:27:37;;;;;;;31.70;13.90;;;;;;;8.41;100.00;98574.56;135570;1279;22539;-71
2023/11/19 10:30:39;;;;;;;54.50;27.40;;;;;;;8.41;100.00;98568.51;135583;1279;22536;-71
2023/11/19 10:33:42;;;;;;;40.50;20.00;;;;;;;8.19;100.00;98563.97;135584;1279;22543;-70
2023/11/19 10:36:44;;;;;;;35.20;18.60;;;;;;;8.07;100.00;98564.45;135580;1279;22535;-71
2023/11/19 10:39:47;;;;;;;56.00;26.70;;;;;;;8.07;100.00;98560.08;135594;1279;22539;-73
2023/11/19 10:42:51;;;;;;;49.20;20.20;;;;;;;7.87;100.00;98551.92;135588;1279;22656;-70
2023/11/19 10:45:54;;;;;;;34.70;15.60;;;;;;;7.94;100.00;98543.20;135578;1279;22539;-70
2023/11/19 10:48:56;;;;;;;32.80;14.90;;;;;;;8.04;100.00;98540.58;135627;1279;22551;-71
2023/11/19 10:51:59;;;;;;;38.10;18.30;;;;;;;8.04;100.00;98527.19;135548;1279;22572;-70
2023/11/19 10:55:04;;;;;;;35.50;14.80;;;;;;;8.00;100.00;98516.91;135613;1279;22551;-71
2023/11/19 10:58:07;;;;;;;63.60;37.90;;;;;;;8.10;100.00;98511.70;135622;1278;22528;-70
2023/11/19 11:01:10;;;;;;;49.50;25.30;;;;;;;8.11;100.00;98507.27;135584;1279;22552;-70
2023/11/19 11:04:12;;;;;;;50.90;23.00;;;;;;;8.10;100.00;98498.07;135618;1260;22644;-71
2023/11/19 11:07:15;;;;;;;32.10;14.10;;;;;;;8.03;100.00;98488.95;135619;1278;22582;-69
2023/11/19 11:10:17;;;;;;;;;;;;;;;7.98;100.00;98480.66;135638;1278;22536;-71
2023/11/19 11:13:20;;;;;;;43.50;19.70;;;;;;;7.85;100.00;98480.50;135597;1256;22547;-69
2023/11/19 11:16:22;;;;;;;37.50;15.70;;;;;;;7.67;100.00;98470.71;135610;1278;22539;-70
2023/11/19 11:19:25;;;;;;;37.70;15.60;;;;;;;7.51;100.00;98456.45;135576;1278;22550;-70
2023/11/19 11:22:27;;;;;;;27.60;10.10;;;;;;;7.38;100.00;98452.94;135592;1278;22535;-68
2023/11/19 11:25:30;;;;;;;51.90;19.00;;;;;;;7.10;100.00;98451.96;135602;1277;24271;-68
2023/11/19 11:28:32;;;;;;;40.40;16.40;;;;;;;7.18;100.00;98451.42;135583;1278;25294;-72
2023/11/19 11:31:35;;;;;;;49.70;20.00;;;;;;;7.29;100.00;98443.55;135548;1278;22644;-69
2023/11/19 11:34:38;;;;;;;44.30;18.30;;;;;;;7.32;100.00;98443.71;135564;1278;22533;-71
2023/11/19 11:37:42;;;;;;;;;;;;;;;7.28;100.00;98444.06;135577;1278;25412;-70
2023/11/19 11:40:45;;;;;;;51.10;22.60;;;;;;;7.18;100.00;98444.45;135507;1278;22581;-71
2023/11/19 11:43:48;;;;;;;38.60;15.90;;;;;;;7.14;100.00;98444.81;135546;1273;22549;-71
2023/11/19 11:46:50;;;;;;;;;;;;;;;7.15;100.00;98445.48;135584;1278;22505;-71
2023/11/19 11:49:53;;;;;;;36.70;14.60;;;;;;;7.00;100.00;98446.05;135508;1278;22563;-72
2023/11/19 11:52:55;;;;;;;36.60;15.30;;;;;;;6.82;100.00;98448.73;135515;1278;22540;-71
2023/11/19 11:55:58;;;;;;;41.20;15.70;;;;;;;6.81;100.00;98446.56;135580;1278;22555;-73
2023/11/19 11:59:02;;;;;;;40.20;15.50;;;;;;;6.76;100.00;98440.20;135589;1278;22542;-71
2023/11/19 12:02:05;;;;;;;49.80;23.20;;;;;;;6.66;100.00;98437.59;135574;1278;22822;-72
2023/11/19 12:05:07;;;;;;;45.10;20.00;;;;;;;6.57;100.00;98434.04;135575;1278;22539;-73
2023/11/19 12:08:11;;;;;;;;;;;;;;;6.40;100.00;98429.67;135586;1279;22516;-73
2023/11/19 12:11:14;;;;;;;43.70;16.80;;;;;;;6.20;100.00;98421.30;135598;1279;22548;-71
2023/11/19 12:14:16;;;;;;;38.20;16.40;;;;;;;6.12;100.00;98408.30;135535;1279;22551;-71
2023/11/19 12:17:19;;;;;;;35.90;14.80;;;;;;;6.13;100.00;98401.98;135588;1279;22564;-73
2023/11/19 12:20:21;;;;;;;43.80;18.50;;;;;;;6.10;100.00;98391.71;135566;1279;22535;-71
2023/11/19 12:23:24;;;;;;;;;;;;;;;5.93;100.00;98384.42;135582;1279;22529;-70
2023/11/19 12:26:27;;;;;;;49.00;20.10;;;;;;;5.86;100.00;98374.30;135552;1279;22653;-71
2023/11/19 12:29:30;;;;;;;43.50;17.70;;;;;;;5.82;100.00;98367.05;135584;1279;22561;-69
2023/11/19 12:32:32;;;;;;;;;;;;;;;5.85;100.00;98361.34;135621;1279;22517;-70
2023/11/19 12:35:35;;;;;;;48.40;18.20;;;;;;;5.84;100.00;98356.70;135533;1279;22538;-70
2023/11/19 12:38:37;;;;;;;41.10;17.10;;;;;;;5.79;100.00;98347.92;135597;1279;22677;-71
2023/11/19 12:41:40;;;;;;;40.00;16.60;;;;;;;5.67;100.00;98341.40;135598;1279;22542;-70
2023/11/19 12:44:42;;;;;;;46.80;20.90;;;;;;;5.64;100.00;98337.23;135539;1279;22559;-71
2023/11/19 12:47:47;;;;;;;39.30;17.70;;;;;;;5.61;100.00;98329.41;135570;1279;22561;-70
2023/11/19 12:50:49;;;;;;;38.20;16.80;;;;;;;5.56;100.00;98322.86;135570;1262;22767;-70
2023/11/19 12:53:54;;;;;;;37.00;15.00;;;;;;;5.59;100.00;98315.60;135534;1279;22576;-70
2023/11/19 12:56:57;;;;;;;33.70;14.90;;;;;;;5.61;100.00;98312.38;135585;1279;22550;-70
2023/11/19 13:00:00;;;;;;;35.40;14.80;;;;;;;5.45;100.00;98314.73;135567;1279;22522;-71
2023/11/19 13:03:03;;;;;;;;;;;;;;;5.52;100.00;98311.08;135576;1261;22566;-65
2023/11/19 13:06:07;;;;;;;35.40;15.60;;;;;;;5.52;100.00;98307.45;135610;1279;25262;-70
2023/11/19 13:09:13;;;;;;;34.30;14.30;;;;;;;5.56;100.00;98300.51;135550;1279;22539;-72
2023/11/19 13:12:15;;;;;;;33.90;14.30;;;;;;;5.31;100.00;98295.08;135605;1279;22640;-71
2023/11/19 13:15:19;;;;;;;35.10;13.60;;;;;;;5.46;100.00;98287.26;135607;1279;22547;-72
2023/11/19 13:18:21;;;;;;;;;;;;;;;5.55;100.00;98287.87;135555;1279;25473;-69
2023/11/19 13:21:24;;;;;;;33.80;13.90;;;;;;;5.48;100.00;98291.49;135600;1278;22645;-70
2023/11/19 13:24:27;;;;;;;34.30;14.30;;;;;;;5.40;100.00;98297.27;135556;1278;22532;-70
2023/11/19 13:27:29;;;;;;;34.30;14.20;;;;;;;5.46;100.00;98294.39;135578;1278;22536;-72
2023/11/19 13:30:32;;;;;;;33.10;12.70;;;;;;;5.42;100.00;98311.59;135580;1278;25458;-72
2023/11/19 13:33:35;;;;;;;35.50;13.80;;;;;;;5.32;100.00;98303.18;135623;1278;22557;-70
2023/11/19 13:36:38;;;;;;;36.50;14.80;;;;;;;5.41;100.00;98290.11;135599;1278;22561;-70
2023/11/19 13:39:41;;;;;;;;;;;;;;;5.37;100.00;98298.09;135635;1278;22501;-70
2023/11/19 13:42:43;;;;;;;37.00;15.40;;;;;;;5.35;100.00;98301.67;135609;1278;22542;-70
2023/11/19 13:45:54;;;;;;;29.70;12.20;;;;;;;5.24;100.00;98276.86;131346;1279;22558;-71
2023/11/19 13:48:57;;;;;;;37.80;17.40;;;;;;;5.16;100.00;98297.52;135557;1279;22558;-69
2023/11/19 13:52:02;;;;;;;32.00;14.10;;;;;;;5.16;100.00;98285.94;135573;1272;22562;-70
2023/11/19 13:55:06;;;;;;;33.40;13.30;;;;;;;5.26;100.00;98282.87;135573;1279;22543;-67
2023/11/19 13:58:08;;;;;;;45.50;19.10;;;;;;;5.09;100.00;98289.88;135564;1267;22547;-72
2023/11/19 14:01:12;;;;;;;33.90;12.60;;;;;;;5.12;100.00;98282.63;135511;1279;22551;-72
2023/11/19 14:04:15;;;;;;;34.30;13.30;;;;;;;5.15;100.00;98267.23;135528;1279;22630;-69
2023/11/19 14:07:18;;;;;;;30.80;12.00;;;;;;;5.11;100.00;98257.39;135506;1279;22538;-70
2023/11/19 14:10:20;;;;;;;33.50;12.90;;;;;;;5.00;100.00;98246.30;135548;1278;22546;-68
2023/11/19 14:13:23;;;;;;;32.00;12.80;;;;;;;4.93;100.00;98233.98;135549;1279;22542;-69